SBOSBO MXP / LIMC
Speedbird OnlineSpeedbird Online MXP / LIMC

Malpensa International Airport
21:30 12.3°C

Location Milano, Italy
Latitude: 45.6306
Longitude: 8.72811
Local Time 21:30 on 20 Apr 2024
UTC +2 hours (Europe/Rome)
Currency £1 equals EUR 1.16
METAR LIMC 201920Z 04015KT CAVOK 13/M11 Q1014 NOSIG
TAF TAF LIMC 201700Z 2018/2124 01018KT CAVOK BECMG 2020/2022 01008KT BECMG 2110/2112 15010KT BECMG 2117/2119 03014KT
Weather As Of 20 Apr 2024 21:30
Description Clear sky
Wind 26 km/h from North-East (40°)
Cloud Cover 0%
Precipitation Rain: none, Snow: none
Sunrise 06:30
Sunset 20:17
NOTAM 30 active NOTAM
Rotations During the last 90 days there were
335 flights from LHR
335 flights to LHR
Lounges Premium Lounge, Terminal 1
Monteverdi Lounge , Terminal 1
Sala Montale Lounge, Terminal 1
Web Airport Website | Wikipedia
Codes IATA: MXP
ICAO: LIMC
Altitude 234 Meter / 768 Feet
Distance 909 KM / 565 Miles
from London.
Runways
RunwayLength (m)Surface
17L3920Asphalt
17R3920Asphalt
35L3920Asphalt
35R3920Asphalt
Radio
TypeDescriptionFrequency
APPMILANO APP132.7
ATISATIS120.025
CLDCLNC DEL120.9
DEPMILANO DEP126.75
GNDGND121.9
TWRTWR119
Live ATC



Support Speedbird Online

© 2017-2024 Speedbird Online